Nearby METAR Reports

 

KORH - Worcester, Massachusetts, USA
Distance from station: NW 4mi, 7km
Updated: Fri, 09-Dec-2022 3:54pm EST
Clear
Clear
 Wind from NW
Wind: NW 12 mph , 19 km/h
Temperature: 43°F , 6°C
Wind Chill: 37°F , 3°C
Dew Point: 5°F , -15°C
Humidity: 21%
Barometer: 30.20 inHg , 1022.7 hPa
Clouds: Clear
Visibility: 10 miles , 16 km
2022/12/09 20:54 KORH 092054Z 32010KT 10SM CLR 06/M15 A3020 RMK AO2 SLP238 T00561150 53004
KBOS - Boston, Massachusetts, USA
Distance from station: ENE 42mi, 68km
Updated: Fri, 09-Dec-2022 3:54pm EST
Clear
Clear
 Wind from NNW
Wind: NNW 13 mph , 20 km/h
Temperature: 45°F , 7°C
Wind Chill: 39°F , 4°C
Dew Point: 7°F , -14°C
Humidity: 21%
Barometer: 30.22 inHg , 1023.4 hPa
Clouds: Clear
Visibility: 10 miles , 16 km
2022/12/09 20:54 KBOS 092054Z 33011KT 10SM CLR 07/M14 A3022 RMK AO2 SLP231 T00721144 53003
 
KCQX - Chatham, Massachusetts, USA
Distance from station: SE 102mi, 164km
Updated: Fri, 09-Dec-2022 3:52pm EST
Clear
Clear
 Wind from N
Wind: N 9 mph , 15 km/h, Gust: 22 mph , 35 km/h
Temperature: 45°F , 7°C
Wind Chill: 40°F , 4°C
Dew Point: 23°F , -5°C
Humidity: 42%
Barometer: 30.15 inHg , 1021 hPa
Clouds: Clear
Visibility: 10 miles , 16 km
2022/12/09 20:52 KCQX 092052Z AUTO 01008G19KT 330V030 10SM CLR 07/M05 A3015 RMK AO2 SLP211 T00671050 53008
KMVY - Marthas Vineyard, Massachusetts, USA
Distance from station: SE 84mi, 135km
Updated: Fri, 09-Dec-2022 3:53pm EST
Clear
Clear
 Wind from N
Wind: N 16 mph , 26 km/h, Gust: 23 mph , 37 km/h
Temperature: 45°F , 7°C
Wind Chill: 38°F , 3°C
Dew Point: 18°F , -8°C
Humidity: 34%
Barometer: 30.16 inHg , 1021.3 hPa
Clouds: Clear
Visibility: 10 miles , 16 km
2022/12/09 20:53 KMVY 092053Z 36014G20KT 10SM CLR 07/M08 A3016 RMK AO2 SLP213 T00721078 51008
 
KPVC - Provincetown, Massachusetts, USA
Distance from station: NNW 85mi, 136km
Updated: Fri, 09-Dec-2022 3:56pm EST
Clear
Clear
 Wind from N
Wind: N 24 mph , 39 km/h, Gust: 35 mph , 56 km/h
Temperature: 45°F , 7°C
Wind Chill: 36°F , 2°C
Dew Point: 21°F , -6°C
Humidity: 39%
Barometer: 30.17 inHg , 1021.7 hPa
Clouds: Clear
Visibility: 10 miles , 16 km
2022/12/09 20:56 KPVC 092056Z AUTO 01021G30KT 10SM CLR 07/M06 A3017 RMK AO2 PK WND 01030/2054 SLP217 T00671056 53005
KAQW - Savoy, Massachusetts, USA
Distance from station: NNW 66mi, 106km
Updated: Fri, 09-Dec-2022 3:52pm EST
Clear
Clear
 Wind from W
Wind: W 9 mph , 15 km/h
Temperature: 34°F , 1°C
Wind Chill: 27°F , -3°C
Dew Point: 19°F , -7°C
Humidity: 56%
Barometer: 30.31 inHg , 1026.4 hPa
Clouds: Clear
Visibility: 10 miles , 16 km
2022/12/09 20:52 KAQW 092052Z AUTO 27008KT 10SM CLR 01/M07 A3031 RMK AO2 SLP274 T00111072 53006
 
KIZG - Fryeburg, Maine, USA
Distance from station: NNE 133mi, 214km
Updated: Fri, 09-Dec-2022 3:54pm EST
Clear
Clear
 Wind from NNW
Wind: NNW 8 mph , 13 km/h
Temperature: 39°F , 4°C
Wind Chill: 33°F , 1°C
Dew Point: 1°F , -17°C
Humidity: 20%
Barometer: 30.27 inHg , 1025.1 hPa
Clouds: Clear
Visibility: 10 miles , 16 km
2022/12/09 20:54 KIZG 092054Z AUTO 34007KT 10SM CLR 04/M17 A3027 RMK AO2 SLP256 T00391172 53008
KMWN - Mt Washington, New Hampshire, USA
Distance from station: NNE 146mi, 234km
Updated: Fri, 09-Dec-2022 3:51pm EST
Clear
Clear
 Wind from NNE
Wind: NNE 45 mph , 72 km/h, Gust: 52 mph , 83 km/h
Temperature: 18°F , -8°C
Wind Chill: -5°F , -21°C
Dew Point: -4°F , -20°C
Humidity: 38%
Clouds: Clear
Visibility: 130 miles , 208 km
2022/12/09 20:51 KMWN 092051Z 03039G45KT 130SM SKC M08/M20 RMK
 
KBML - Berlin, New Hampshire, USA
Distance from station: NNE 160mi, 257km
Updated: Fri, 09-Dec-2022 3:52pm EST
Clear
Clear
 Wind from NW
Wind: NW 8 mph , 13 km/h
Temperature: 32°F , 0°C
Wind Chill: 25°F , -4°C
Dew Point: 14°F , -10°C
Humidity: 47%
Barometer: 30.29 inHg , 1025.7 hPa
Clouds: Clear
Visibility: 10 miles , 16 km
2022/12/09 20:52 KBML 092052Z AUTO 32007KT 10SM CLR 00/M10 A3029 RMK AO2 SLP277 T00001100 53010